Time,TemperatureF,DewpointF,PressureIn,WindDirection,WindDirectionDegrees,WindSpeedMPH,WindSpeedGustMPH,Humidity,HourlyPrecipIn,Conditions,Clouds,dailyrainin,SolarRadiationWatts/m^2,SoftwareType,DateUTC
2013-06-08 00:01:00,77.2,72.0,29.85,NNE,22,9.2,9.2,84,0.00,RA,,0.00,0.0,WeatherDisplay:10.37,2013-06-08 04:01:00,
2013-06-08 00:02:00,77.2,72.0,29.85,NNE,22,9.2,9.2,84,0.00,RA,,0.00,0.0,WeatherDisplay:10.37,2013-06-08 04:02:00,
2013-06-08 00:07:00,77.1,71.9,29.85,NNE,22,6.9,8.6,84,0.00,RA,,0.00,0.0,WeatherDisplay:10.37,2013-06-08 04:07:00,
2013-06-08 00:12:00,77.1,71.9,29.85,NNE,22,11.5,11.5,84,0.00,FEW,,0.00,0.0,WeatherDisplay:10.37,2013-06-08 04:12:00,
2013-06-08 00:17:00,76.9,72.0,29.85,NNE,22,8.1,8.1,85,0.00,FEW,,0.00,0.0,WeatherDisplay:10.37,2013-06-08 04:17:00,
2013-06-08 00:22:00,76.8,71.9,29.85,NNE,22,8.1,8.1,85,0.00,FEW,,0.00,0.0,WeatherDisplay:10.37,2013-06-08 04:22:00,
2013-06-08 00:27:00,76.6,71.7,29.85,NNE,22,5.8,6.2,85,0.00,FEW,,0.00,0.0,WeatherDisplay:10.37,2013-06-08 04:27:00,
2013-06-08 00:32:00,76.5,72.0,29.86,NNE,22,9.2,9.2,86,0.00,FEW,,0.00,0.0,WeatherDisplay:10.37,2013-06-08 04:32:00,
2013-06-08 00:37:00,76.5,72.0,29.86,NNE,22,5.5,5.5,86,0.00,FEW,,0.00,0.0,WeatherDisplay:10.37,2013-06-08 04:37:00,
2013-06-08 00:42:00,76.3,71.8,29.86,NNE,22,5.8,5.8,86,0.00,FEW,,0.00,0.0,WeatherDisplay:10.37,2013-06-08 04:42:00,
2013-06-08 00:47:00,76.2,71.7,29.86,NNE,22,4.6,4.7,86,0.00,FEW,,0.00,0.0,WeatherDisplay:10.37,2013-06-08 04:47:00,
2013-06-08 00:52:00,76.2,72.0,29.86,NNE,22,8.2,9.0,87,0.00,FEW,,0.00,0.0,WeatherDisplay:10.37,2013-06-08 04:52:00,
2013-06-08 00:57:00,76.1,71.9,29.86,NNE,22,6.9,7.4,87,0.00,FEW,,0.00,0.0,WeatherDisplay:10.37,2013-06-08 04:57:00,
2013-06-08 01:02:00,76.0,71.8,29.87,NNE,22,8.1,8.1,87,0.00,CLR,,0.00,0.0,WeatherDisplay:10.37,2013-06-08 05:02:00,
2013-06-08 01:07:00,76.0,71.8,29.87,NNE,22,9.2,9.2,87,0.00,CLR,,0.00,0.0,WeatherDisplay:10.37,2013-06-08 05:07:00,
2013-06-08 01:12:00,75.9,72.1,29.87,NNE,22,8.1,8.1,88,0.00,CLR,,0.00,0.0,WeatherDisplay:10.37,2013-06-08 05:12:00,
2013-06-08 01:17:00,75.9,72.1,29.87,NNE,22,8.1,8.1,88,0.00,CLR,,0.00,0.0,WeatherDisplay:10.37,2013-06-08 05:17:00,
2013-06-08 01:22:00,75.8,72.0,29.87,NNE,22,8.1,8.1,88,0.00,CLR,,0.00,0.0,WeatherDisplay:10.37,2013-06-08 05:22:00,
2013-06-08 01:27:00,75.7,71.9,29.87,NNE,22,5.8,5.8,88,0.00,CLR,,0.00,0.0,WeatherDisplay:10.37,2013-06-08 05:27:00,
2013-06-08 01:32:00,75.6,72.1,29.87,NNE,22,6.9,8.7,89,0.00,CLR,,0.00,0.0,WeatherDisplay:10.37,2013-06-08 05:32:00,
2013-06-08 01:37:00,75.6,72.1,29.87,NNE,22,9.2,9.2,89,0.00,CLR,,0.00,0.0,WeatherDisplay:10.37,2013-06-08 05:37:00,
2013-06-08 01:42:00,75.7,72.2,29.87,NNE,22,5.8,5.8,89,0.00,CLR,,0.00,0.0,WeatherDisplay:10.37,2013-06-08 05:42:00,
2013-06-08 01:47:00,75.6,72.1,29.87,NNE,22,6.9,6.9,89,0.00,CLR,,0.00,0.0,WeatherDisplay:10.37,2013-06-08 05:47:00,
2013-06-08 01:52:00,75.6,72.1,29.87,NNE,22,6.9,6.9,89,0.00,CLR,,0.00,0.0,WeatherDisplay:10.37,2013-06-08 05:52:00,
2013-06-08 01:57:00,75.5,72.0,29.87,NNE,22,9.2,9.2,89,0.00,CLR,,0.00,0.0,WeatherDisplay:10.37,2013-06-08 05:57:00,
2013-06-08 02:02:00,75.5,72.0,29.87,NNE,22,6.9,6.9,89,0.00,CLR,,0.00,0.0,WeatherDisplay:10.37,2013-06-08 06:02:00,
2013-06-08 02:07:00,75.4,72.3,29.87,NNE,22,8.1,8.6,90,0.00,CLR,,0.00,0.0,WeatherDisplay:10.37,2013-06-08 06:07:00,
2013-06-08 02:12:00,75.4,72.3,29.87,NNE,22,9.2,9.2,90,0.00,CLR,,0.00,0.0,WeatherDisplay:10.37,2013-06-08 06:12:00,
2013-06-08 02:17:00,75.4,72.3,29.87,NNE,22,6.9,6.9,90,0.00,CLR,,0.00,0.0,WeatherDisplay:10.37,2013-06-08 06:17:00,
2013-06-08 02:22:00,75.4,72.3,29.87,NNE,22,8.2,10.7,90,0.00,CLR,,0.00,0.0,WeatherDisplay:10.37,2013-06-08 06:22:00,
2013-06-08 02:27:00,75.4,72.3,29.87,NNE,22,11.0,11.5,90,0.00,CLR,,0.00,0.0,WeatherDisplay:10.37,2013-06-08 06:27:00,
2013-06-08 02:32:00,75.4,72.3,29.88,NNE,22,8.1,8.1,90,0.00,CLR,,0.00,0.0,WeatherDisplay:10.37,2013-06-08 06:32:00,
2013-06-08 02:37:00,75.3,72.2,29.88,NNE,22,5.8,5.8,90,0.00,CLR,,0.00,0.0,WeatherDisplay:10.37,2013-06-08 06:37:00,
2013-06-08 02:42:00,75.2,72.1,29.88,NNE,22,6.9,7.2,90,0.00,CLR,,0.00,0.0,WeatherDisplay:10.37,2013-06-08 06:42:00,
2013-06-08 02:47:00,75.2,72.1,29.88,NNE,22,11.0,11.0,90,0.00,CLR,,0.00,0.0,WeatherDisplay:10.37,2013-06-08 06:47:00,
2013-06-08 02:52:00,75.2,72.1,29.88,NNE,22,8.1,10.3,90,0.00,CLR,,0.00,0.0,WeatherDisplay:10.37,2013-06-08 06:52:00,
2013-06-08 02:57:00,75.2,72.1,29.88,NNE,22,6.9,7.4,90,0.00,CLR,,0.00,0.0,WeatherDisplay:10.37,2013-06-08 06:57:00,
2013-06-08 03:02:00,75.1,72.0,29.88,NNE,22,5.8,5.8,90,0.00,CLR,,0.00,0.0,WeatherDisplay:10.37,2013-06-08 07:02:00,
2013-06-08 03:07:00,74.9,72.1,29.88,NNE,22,8.2,8.8,91,0.00,CLR,,0.00,0.0,WeatherDisplay:10.37,2013-06-08 07:07:00,
2013-06-08 03:12:00,75.0,72.2,29.88,NNE,22,11.5,11.5,91,0.00,CLR,,0.00,0.0,WeatherDisplay:10.37,2013-06-08 07:12:00,
2013-06-08 03:17:00,75.0,72.2,29.88,NNE,22,6.9,6.9,91,0.00,CLR,,0.00,0.0,WeatherDisplay:10.37,2013-06-08 07:17:00,
2013-06-08 03:22:00,75.0,72.2,29.88,NNE,22,11.5,11.5,91,0.00,CLR,,0.00,0.0,WeatherDisplay:10.37,2013-06-08 07:22:00,
2013-06-08 03:27:00,75.0,72.2,29.88,NNE,22,8.2,8.2,91,0.00,CLR,,0.00,0.0,WeatherDisplay:10.37,2013-06-08 07:27:00,
2013-06-08 03:32:00,75.0,72.2,29.88,NNE,22,9.2,9.2,91,0.00,CLR,,0.00,0.0,WeatherDisplay:10.37,2013-06-08 07:32:00,
2013-06-08 03:38:00,75.0,72.2,29.88,NNE,22,8.1,9.4,91,0.00,CLR,,0.00,0.0,WeatherDisplay:10.37,2013-06-08 07:38:00,
2013-06-08 03:43:00,75.0,72.2,29.88,NNE,22,5.8,5.8,91,0.00,CLR,,0.00,0.0,WeatherDisplay:10.37,2013-06-08 07:43:00,
2013-06-08 03:48:00,74.9,72.1,29.87,NNE,22,6.9,6.9,91,0.00,CLR,,0.00,0.0,WeatherDisplay:10.37,2013-06-08 07:48:00,
2013-06-08 03:53:00,74.9,72.1,29.87,NNE,22,5.8,5.8,91,0.00,CLR,,0.00,0.0,WeatherDisplay:10.37,2013-06-08 07:53:00,
2013-06-08 03:58:00,74.9,72.1,29.87,NNE,22,4.6,4.6,91,0.00,CLR,,0.00,0.0,WeatherDisplay:10.37,2013-06-08 07:58:00,
2013-06-08 04:04:00,74.8,72.0,29.88,NNE,22,6.9,6.9,91,0.00,FEW,,0.00,0.0,WeatherDisplay:10.37,2013-06-08 08:04:00,
2013-06-08 04:09:00,74.8,72.0,29.88,NNE,22,8.1,8.1,91,0.00,FEW,,0.00,0.0,WeatherDisplay:10.37,2013-06-08 08:09:00,
2013-06-08 04:14:00,74.8,72.0,29.88,NNE,22,6.9,6.9,91,0.00,FEW,,0.00,0.0,WeatherDisplay:10.37,2013-06-08 08:14:00,
2013-06-08 04:19:00,74.7,72.2,29.88,NNE,22,9.2,9.2,92,0.00,FEW,,0.00,0.0,WeatherDisplay:10.37,2013-06-08 08:19:00,
2013-06-08 04:24:00,74.7,72.2,29.88,NNE,22,6.9,6.9,92,0.00,FEW,,0.00,0.0,WeatherDisplay:10.37,2013-06-08 08:24:00,
2013-06-08 04:29:00,74.8,72.3,29.88,NNE,22,6.9,6.9,92,0.00,FEW,,0.00,0.0,WeatherDisplay:10.37,2013-06-08 08:29:00,
2013-06-08 04:37:00,74.7,72.2,29.88,NNE,22,6.9,6.9,92,0.00,FEW,,0.00,0.0,WeatherDisplay:10.37,2013-06-08 08:37:00,
2013-06-08 04:42:00,74.7,72.2,29.88,NNE,22,8.1,8.9,92,0.00,FEW,,0.00,0.0,WeatherDisplay:10.37,2013-06-08 08:42:00,
2013-06-08 04:47:00,74.7,72.2,29.88,NNE,22,6.9,6.9,92,0.00,FEW,,0.00,0.0,WeatherDisplay:10.37,2013-06-08 08:47:00,
2013-06-08 04:52:00,74.7,72.2,29.88,NNE,22,2.7,2.7,92,0.00,FEW,,0.00,0.0,WeatherDisplay:10.37,2013-06-08 08:52:00,
2013-06-08 04:57:00,74.6,72.1,29.88,NNE,22,6.9,6.9,92,0.00,FEW,,0.00,0.0,WeatherDisplay:10.37,2013-06-08 08:57:00,
2013-06-08 05:02:00,74.7,72.2,29.88,NNE,22,8.1,8.1,92,0.00,SCT,,0.00,0.0,WeatherDisplay:10.37,2013-06-08 09:02:00,
2013-06-08 05:07:00,74.6,72.1,29.88,NNE,22,4.6,5.8,92,0.00,SCT,,0.00,0.0,WeatherDisplay:10.37,2013-06-08 09:07:00,
2013-06-08 05:13:00,74.6,72.1,29.88,NNE,22,8.1,8.1,92,0.00,SCT,,0.00,0.0,WeatherDisplay:10.37,2013-06-08 09:13:00,
2013-06-08 05:18:00,74.5,72.0,29.88,NNE,22,5.8,5.8,92,0.00,SCT,,0.00,0.0,WeatherDisplay:10.37,2013-06-08 09:18:00,
2013-06-08 05:23:00,74.4,71.9,29.88,NNE,22,6.9,6.9,92,0.00,SCT,,0.00,0.0,WeatherDisplay:10.37,2013-06-08 09:23:00,
2013-06-08 05:28:00,74.3,71.8,29.88,NNE,22,4.1,4.1,92,0.00,SCT,,0.00,0.0,WeatherDisplay:10.37,2013-06-08 09:28:00,
2013-06-08 05:33:00,74.2,71.7,29.89,NNE,22,4.1,4.1,92,0.00,SCT,,0.00,0.0,WeatherDisplay:10.37,2013-06-08 09:33:00,
2013-06-08 05:38:00,74.1,71.9,29.89,NNE,22,1.2,1.2,93,0.00,SCT,,0.00,0.0,WeatherDisplay:10.37,2013-06-08 09:38:00,
2013-06-08 05:43:00,74.0,71.5,29.89,NNE,22,1.4,1.4,92,0.00,SCT,,0.00,0.0,WeatherDisplay:10.37,2013-06-08 09:43:00,
2013-06-08 05:48:00,73.8,71.6,29.90,NNE,22,0.0,0.3,93,0.00,SCT,,0.00,0.0,WeatherDisplay:10.37,2013-06-08 09:48:00,
2013-06-08 05:53:00,73.6,71.4,29.90,NNE,22,2.7,2.7,93,0.00,SCT,,0.00,0.0,WeatherDisplay:10.37,2013-06-08 09:53:00,
2013-06-08 05:58:00,73.5,71.4,29.90,NNE,22,2.3,2.3,93,0.00,SCT,,0.00,0.0,WeatherDisplay:10.37,2013-06-08 09:58:00,
2013-06-08 06:03:00,73.3,71.2,29.90,NNE,22,0.0,0.0,93,0.00,SCT,,0.00,0.0,WeatherDisplay:10.37,2013-06-08 10:03:00,
2013-06-08 06:08:00,73.1,71.0,29.90,NNE,19,0.0,0.0,93,0.00,SCT,,0.00,0.0,WeatherDisplay:10.37,2013-06-08 10:08:00,
2013-06-08 06:13:00,72.9,70.8,29.90,NNE,19,0.0,0.0,93,0.00,SCT,,0.00,0.0,WeatherDisplay:10.37,2013-06-08 10:13:00,
2013-06-08 06:18:00,72.6,70.5,29.90,NNE,21,0.0,0.0,93,0.00,SCT,,0.00,0.0,WeatherDisplay:10.37,2013-06-08 10:18:00,
2013-06-08 06:23:00,72.7,70.6,29.90,NNE,18,0.0,0.0,93,0.00,SCT,,0.00,0.0,WeatherDisplay:10.37,2013-06-08 10:23:00,
2013-06-08 06:28:00,72.8,71.0,29.90,NNE,18,0.0,0.0,94,0.00,SCT,,0.00,5.0,WeatherDisplay:10.37,2013-06-08 10:28:00,
2013-06-08 06:33:00,73.0,71.2,29.91,NNE,14,1.2,1.2,94,0.00,SCT,,0.00,7.0,WeatherDisplay:10.37,2013-06-08 10:33:00,
2013-06-08 06:38:00,73.4,71.6,29.91,NNE,14,2.3,2.3,94,0.00,SCT,,0.00,9.0,WeatherDisplay:10.37,2013-06-08 10:38:00,
2013-06-08 06:43:00,73.4,71.6,29.91,NNE,14,2.3,2.3,94,0.00,SCT,,0.00,12.0,WeatherDisplay:10.37,2013-06-08 10:43:00,
2013-06-08 06:48:00,73.6,71.8,29.91,NNE,21,5.8,5.8,94,0.00,SCT,,0.00,12.0,WeatherDisplay:10.37,2013-06-08 10:48:00,
2013-06-08 06:53:00,73.7,71.9,29.91,NNE,23,2.3,2.3,94,0.00,SCT,,0.00,14.0,WeatherDisplay:10.37,2013-06-08 10:53:00,
2013-06-08 06:58:00,73.7,71.9,29.91,NNE,23,4.6,4.6,94,0.00,SCT,,0.00,16.0,WeatherDisplay:10.37,2013-06-08 10:58:00,
2013-06-08 07:03:00,73.7,71.9,29.92,NNE,24,2.7,2.7,94,0.00,BKN,,0.00,18.0,WeatherDisplay:10.37,2013-06-08 11:03:00,
2013-06-08 07:08:00,73.7,71.9,29.92,NNE,24,0.0,0.0,94,0.00,BKN,,0.00,19.0,WeatherDisplay:10.37,2013-06-08 11:08:00,
2013-06-08 07:13:00,73.5,71.4,29.92,NNE,24,0.0,0.0,93,0.00,BKN,,0.00,19.0,WeatherDisplay:10.37,2013-06-08 11:13:00,
2013-06-08 07:18:00,73.4,71.6,29.92,NNE,25,0.0,0.0,94,0.00,BKN,,0.00,21.0,WeatherDisplay:10.37,2013-06-08 11:18:00,
2013-06-08 07:23:00,73.5,71.7,29.92,NNE,25,0.0,0.0,94,0.00,BKN,,0.00,28.0,WeatherDisplay:10.37,2013-06-08 11:23:00,
2013-06-08 07:28:00,73.6,71.8,29.92,North,360,0.0,0.0,94,0.00,BKN,,0.00,33.0,WeatherDisplay:10.37,2013-06-08 11:28:00,
2013-06-08 07:33:00,73.8,72.0,29.93,NNE,25,0.0,0.0,94,0.00,BKN,,0.00,44.0,WeatherDisplay:10.37,2013-06-08 11:33:00,
2013-06-08 07:38:00,74.0,72.2,29.93,NNE,20,4.6,4.6,94,0.00,BKN,,0.00,42.0,WeatherDisplay:10.37,2013-06-08 11:38:00,
2013-06-08 07:43:00,74.1,72.3,29.93,NNE,22,8.2,8.2,94,0.00,BKN,,0.00,51.0,WeatherDisplay:10.37,2013-06-08 11:43:00,
2013-06-08 07:48:00,74.2,72.4,29.93,NNE,24,5.8,5.8,94,0.00,BKN,,0.00,53.0,WeatherDisplay:10.37,2013-06-08 11:48:00,
2013-06-08 07:53:00,74.3,72.5,29.93,NNE,25,5.5,5.5,94,0.00,BKN,,0.00,58.0,WeatherDisplay:10.37,2013-06-08 11:53:00,
2013-06-08 07:58:00,74.3,72.5,29.93,NNE,24,6.9,6.9,94,0.00,BKN,,0.00,60.0,WeatherDisplay:10.37,2013-06-08 11:58:00,
2013-06-08 08:03:00,74.4,72.6,29.93,NNE,22,8.2,8.5,94,0.00,BKN,,0.00,65.0,WeatherDisplay:10.37,2013-06-08 12:03:00,
2013-06-08 08:08:00,74.4,72.6,29.93,NNE,22,6.9,6.9,94,0.00,BKN,,0.00,86.0,WeatherDisplay:10.37,2013-06-08 12:08:00,
2013-06-08 08:13:00,74.6,72.8,29.93,NNE,22,5.8,5.8,94,0.00,BKN,,0.00,111.0,WeatherDisplay:10.37,2013-06-08 12:13:00,
2013-06-08 08:18:00,74.8,73.0,29.94,NNE,22,8.1,8.1,94,0.00,BKN,,0.00,121.0,WeatherDisplay:10.37,2013-06-08 12:18:00,
2013-06-08 08:23:00,74.9,73.1,29.94,NNE,22,8.1,9.2,94,0.00,BKN,,0.00,121.0,WeatherDisplay:10.37,2013-06-08 12:23:00,
2013-06-08 08:28:00,75.0,73.2,29.94,NNE,22,9.2,9.2,94,0.00,BKN,,0.00,111.0,WeatherDisplay:10.37,2013-06-08 12:28:00,
2013-06-08 08:33:00,75.2,73.4,29.95,NNE,22,5.8,5.8,94,0.00,BKN,,0.00,214.0,WeatherDisplay:10.37,2013-06-08 12:33:00,
2013-06-08 08:38:00,75.5,73.3,29.95,NNE,24,6.9,6.9,93,0.00,BKN,,0.00,192.0,WeatherDisplay:10.37,2013-06-08 12:38:00,
2013-06-08 08:43:00,76.2,74.0,29.95,NNE,22,8.1,9.2,93,0.00,BKN,,0.00,570.0,WeatherDisplay:10.37,2013-06-08 12:43:00,
2013-06-08 08:48:00,76.7,74.5,29.95,NNE,22,6.9,6.9,93,0.00,BKN,,0.00,490.0,WeatherDisplay:10.37,2013-06-08 12:48:00,
2013-06-08 08:53:00,77.3,74.8,29.95,NNE,22,6.9,6.9,92,0.00,BKN,,0.00,221.0,WeatherDisplay:10.37,2013-06-08 12:53:00,
2013-06-08 08:58:00,78.2,75.4,29.95,NNE,22,4.6,4.6,91,0.00,BKN,,0.00,617.0,WeatherDisplay:10.37,2013-06-08 12:58:00,
2013-06-08 09:03:00,78.9,75.7,29.95,NNE,22,2.3,2.3,90,0.00,SCT,,0.00,643.0,WeatherDisplay:10.37,2013-06-08 13:03:00,
2013-06-08 09:08:00,79.8,76.3,29.95,NNE,23,4.6,5.1,89,0.00,SCT,,0.00,288.0,WeatherDisplay:10.37,2013-06-08 13:08:00,
2013-06-08 09:13:00,79.9,76.0,29.95,NNE,23,1.4,1.4,88,0.00,SCT,,0.00,334.0,WeatherDisplay:10.37,2013-06-08 13:13:00,
2013-06-08 09:18:00,80.1,75.5,29.96,NNE,22,8.1,8.1,86,0.00,SCT,,0.00,336.0,WeatherDisplay:10.37,2013-06-08 13:18:00,
2013-06-08 09:23:00,80.5,75.9,29.96,NNE,22,6.9,6.9,86,0.00,SCT,,0.00,387.0,WeatherDisplay:10.37,2013-06-08 13:23:00,
2013-06-08 09:28:00,80.5,75.6,29.96,NNE,22,9.2,9.2,85,0.00,SCT,,0.00,301.0,WeatherDisplay:10.37,2013-06-08 13:28:00,
2013-06-08 09:33:00,80.2,74.9,29.95,NNE,22,6.9,7.9,84,0.00,BKN,,0.00,316.0,WeatherDisplay:10.37,2013-06-08 13:33:00,
2013-06-08 09:38:00,80.1,74.8,29.95,NNE,22,6.9,7.3,84,0.00,BKN,,0.00,244.0,WeatherDisplay:10.37,2013-06-08 13:38:00,
2013-06-08 09:43:00,80.0,75.1,29.95,NNE,22,5.5,5.5,85,0.00,BKN,,0.00,316.0,WeatherDisplay:10.37,2013-06-08 13:43:00,
2013-06-08 09:48:00,80.5,75.2,29.95,NNE,22,6.9,6.9,84,0.00,BKN,,0.00,647.0,WeatherDisplay:10.37,2013-06-08 13:48:00,
2013-06-08 09:53:00,81.6,75.9,29.95,NNE,22,5.8,5.8,83,0.00,BKN,,0.00,661.0,WeatherDisplay:10.37,2013-06-08 13:53:00,
2013-06-08 09:58:00,82.9,77.2,29.95,NNE,22,1.2,1.2,83,0.00,BKN,,0.00,670.0,WeatherDisplay:10.37,2013-06-08 13:58:00,
2013-06-08 10:03:00,83.2,76.8,29.96,NNE,22,5.8,5.8,81,0.00,SCT,,0.00,677.0,WeatherDisplay:10.37,2013-06-08 14:03:00,
2013-06-08 10:08:00,84.1,76.9,29.96,NNE,22,4.1,4.1,79,0.00,SCT,,0.00,696.0,WeatherDisplay:10.37,2013-06-08 14:08:00,
2013-06-08 10:13:00,84.6,76.6,29.96,NNE,22,4.6,4.6,77,0.00,SCT,,0.00,707.0,WeatherDisplay:10.37,2013-06-08 14:13:00,
2013-06-08 10:18:00,84.8,76.4,29.97,NNE,22,2.3,2.3,76,0.00,SCT,,0.00,726.0,WeatherDisplay:10.37,2013-06-08 14:18:00,
2013-06-08 10:23:00,84.9,76.5,29.97,NNE,22,4.6,6.8,76,0.00,SCT,,0.00,744.0,WeatherDisplay:10.37,2013-06-08 14:23:00,
2013-06-08 10:28:00,85.3,76.5,29.97,NNE,22,2.7,3.8,75,0.00,SCT,,0.00,756.0,WeatherDisplay:10.37,2013-06-08 14:28:00,
2013-06-08 10:33:00,86.0,77.1,29.97,NNE,22,2.3,2.3,75,0.00,SCT,,0.00,773.0,WeatherDisplay:10.37,2013-06-08 14:33:00,
2013-06-08 10:38:00,86.6,77.7,29.97,NNE,22,8.1,8.1,75,0.00,SCT,,0.00,782.0,WeatherDisplay:10.37,2013-06-08 14:38:00,
2013-06-08 10:43:00,86.3,76.2,29.97,NNE,22,11.5,11.5,72,0.00,SCT,,0.00,798.0,WeatherDisplay:10.37,2013-06-08 14:43:00,
2013-06-08 10:49:00,86.3,77.0,29.97,NNE,23,11.0,11.0,74,0.00,SCT,,0.00,810.0,WeatherDisplay:10.37,2013-06-08 14:49:00,
2013-06-08 10:54:00,86.6,76.1,29.97,NNE,22,11.5,11.5,71,0.00,SCT,,0.00,837.0,WeatherDisplay:10.37,2013-06-08 14:54:00,
2013-06-08 10:59:00,86.8,75.4,29.97,NNE,22,6.9,6.9,69,0.00,SCT,,0.00,849.0,WeatherDisplay:10.37,2013-06-08 14:59:00,
2013-06-08 11:04:00,87.1,76.1,29.98,NNE,23,8.1,9.1,70,0.00,BKN,,0.00,851.0,WeatherDisplay:10.37,2013-06-08 15:04:00,
2013-06-08 11:09:00,87.4,77.7,29.98,NNE,22,15.0,15.0,73,0.00,BKN,,0.00,863.0,WeatherDisplay:10.37,2013-06-08 15:09:00,
2013-06-08 11:14:00,87.5,76.5,29.98,NNE,22,8.1,9.7,70,0.00,BKN,,0.00,870.0,WeatherDisplay:10.37,2013-06-08 15:14:00,
2013-06-08 11:19:00,88.2,76.7,29.98,NNE,22,5.5,5.5,69,0.00,BKN,,0.00,877.0,WeatherDisplay:10.37,2013-06-08 15:19:00,
2013-06-08 11:24:00,88.4,76.5,29.98,NNE,22,6.9,6.9,68,0.00,BKN,,0.00,902.0,WeatherDisplay:10.37,2013-06-08 15:24:00,
2013-06-08 11:29:00,88.3,76.4,29.98,NNE,23,12.4,12.4,68,0.00,BKN,,0.00,912.0,WeatherDisplay:10.37,2013-06-08 15:29:00,
2013-06-08 11:34:00,88.8,77.3,29.98,NNE,22,8.1,8.1,69,0.00,BKN,,0.00,921.0,WeatherDisplay:10.37,2013-06-08 15:34:00,
2013-06-08 11:39:00,89.3,77.8,29.98,NNE,21,6.9,6.9,69,0.00,BKN,,0.00,949.0,WeatherDisplay:10.37,2013-06-08 15:39:00,
2013-06-08 11:44:00,89.5,77.5,29.98,NNE,22,8.1,8.1,68,0.00,BKN,,0.00,956.0,WeatherDisplay:10.37,2013-06-08 15:44:00,
2013-06-08 11:49:00,89.4,77.0,29.98,NNE,22,4.6,4.6,67,0.00,BKN,,0.00,937.0,WeatherDisplay:10.37,2013-06-08 15:49:00,
2013-06-08 11:54:00,89.6,76.3,29.98,NNE,22,6.9,6.9,65,0.00,BKN,,0.00,963.0,WeatherDisplay:10.37,2013-06-08 15:54:00,
2013-06-08 11:59:00,90.2,78.2,29.98,NNE,22,2.3,2.3,68,0.00,BKN,,0.00,895.0,WeatherDisplay:10.37,2013-06-08 15:59:00,
2013-06-08 12:04:00,90.3,76.5,29.97,NNE,22,5.8,5.8,64,0.00,BKN,,0.00,919.0,WeatherDisplay:10.37,2013-06-08 16:04:00,
2013-06-08 12:09:00,90.1,75.8,29.97,NNE,22,6.9,6.9,63,0.00,BKN,,0.00,308.0,WeatherDisplay:10.37,2013-06-08 16:09:00,
2013-06-08 12:14:00,88.7,75.0,29.97,NNE,22,5.8,5.8,64,0.00,BKN,,0.00,302.0,WeatherDisplay:10.37,2013-06-08 16:14:00,
2013-06-08 12:19:00,89.9,77.0,29.97,NNE,22,8.2,8.2,66,0.00,BKN,,0.00,1187.0,WeatherDisplay:10.37,2013-06-08 16:19:00,
2013-06-08 12:24:00,90.5,76.7,29.97,NNE,22,8.1,8.1,64,0.00,BKN,,0.00,1223.0,WeatherDisplay:10.37,2013-06-08 16:24:00,
2013-06-08 12:29:00,90.1,75.8,29.97,NNE,22,2.3,2.3,63,0.00,BKN,,0.00,905.0,WeatherDisplay:10.37,2013-06-08 16:29:00,
2013-06-08 12:34:00,89.8,76.9,29.97,NNE,22,2.3,2.3,66,0.00,BKN,,0.00,309.0,WeatherDisplay:10.37,2013-06-08 16:34:00,
2013-06-08 12:39:00,88.7,74.5,29.97,NNE,23,1.2,1.2,63,0.00,BKN,,0.00,308.0,WeatherDisplay:10.37,2013-06-08 16:39:00,
2013-06-08 12:44:00,88.9,75.1,29.97,NNE,23,2.3,2.3,64,0.00,BKN,,0.00,403.0,WeatherDisplay:10.37,2013-06-08 16:44:00,
2013-06-08 12:49:00,89.0,75.7,29.97,NNE,23,1.4,1.4,65,0.00,BKN,,0.00,585.0,WeatherDisplay:10.37,2013-06-08 16:49:00,
2013-06-08 12:54:00,89.7,75.9,29.97,NNE,23,2.3,2.3,64,0.00,BKN,,0.00,585.0,WeatherDisplay:10.37,2013-06-08 16:54:00,
2013-06-08 12:59:00,90.0,76.2,29.96,NNE,23,2.3,2.3,64,0.00,BKN,,0.00,459.0,WeatherDisplay:10.37,2013-06-08 16:59:00,
2013-06-08 13:04:00,90.0,74.7,29.96,NNE,23,6.9,7.2,61,0.00,BKN,,0.00,668.0,WeatherDisplay:10.37,2013-06-08 17:04:00,
2013-06-08 13:09:00,89.5,75.2,29.96,NNE,23,1.2,1.2,63,0.00,BKN,,0.00,410.0,WeatherDisplay:10.37,2013-06-08 17:09:00,
2013-06-08 13:14:00,89.2,76.8,29.96,NNE,23,1.4,1.4,67,0.00,BKN,,0.00,626.0,WeatherDisplay:10.37,2013-06-08 17:14:00,
2013-06-08 13:19:00,90.5,74.2,29.96,NNE,23,4.6,4.6,59,0.00,BKN,,0.00,991.0,WeatherDisplay:10.37,2013-06-08 17:19:00,
2013-06-08 13:24:00,91.8,76.9,29.96,NNE,23,2.7,2.7,62,0.00,BKN,,0.00,1106.0,WeatherDisplay:10.37,2013-06-08 17:24:00,
2013-06-08 13:29:00,92.5,78.1,29.96,NNE,23,2.3,2.3,63,0.00,BKN,,0.00,1158.0,WeatherDisplay:10.37,2013-06-08 17:29:00,
2013-06-08 13:34:00,92.2,74.8,29.96,NNE,23,8.2,8.2,57,0.00,BKN,,0.00,1158.0,WeatherDisplay:10.37,2013-06-08 17:34:00,
2013-06-08 13:39:00,92.9,75.9,29.96,NNE,23,1.2,1.2,58,0.00,BKN,,0.00,1255.0,WeatherDisplay:10.37,2013-06-08 17:39:00,
2013-06-08 13:44:00,92.9,74.4,29.95,NNE,20,4.6,4.6,55,0.00,BKN,,0.00,1176.0,WeatherDisplay:10.37,2013-06-08 17:44:00,
2013-06-08 13:49:00,92.3,73.8,29.95,NNE,20,1.4,1.4,55,0.00,BKN,,0.00,322.0,WeatherDisplay:10.37,2013-06-08 17:49:00,
2013-06-08 13:54:00,91.2,71.1,29.95,NNE,21,5.8,5.8,52,0.00,BKN,,0.00,425.0,WeatherDisplay:10.37,2013-06-08 17:54:00,
2013-06-08 13:59:00,91.1,75.8,29.95,NNE,20,1.4,1.4,61,0.00,BKN,,0.00,278.0,WeatherDisplay:10.37,2013-06-08 17:59:00,
2013-06-08 14:04:00,90.5,75.7,29.95,NNE,20,2.7,2.7,62,0.00,BKN,,0.00,353.0,WeatherDisplay:10.37,2013-06-08 18:04:00,
2013-06-08 14:09:00,91.7,72.1,29.95,NNE,22,8.2,8.2,53,0.00,BKN,,0.00,1202.0,WeatherDisplay:10.37,2013-06-08 18:09:00,
2013-06-08 14:14:00,92.8,73.2,29.94,NNE,21,6.9,6.9,53,0.00,BKN,,0.00,1074.0,WeatherDisplay:10.37,2013-06-08 18:14:00,
2013-06-08 14:19:00,92.4,73.9,29.94,NNE,21,1.2,1.2,55,0.00,BKN,,0.00,269.0,WeatherDisplay:10.37,2013-06-08 18:19:00,
2013-06-08 14:24:00,91.3,72.3,29.94,NNE,20,6.9,6.9,54,0.00,BKN,,0.00,211.0,WeatherDisplay:10.37,2013-06-08 18:24:00,
2013-06-08 14:29:00,90.2,71.3,29.93,NNE,22,8.1,8.1,54,0.00,BKN,,0.00,265.0,WeatherDisplay:10.37,2013-06-08 18:29:00,
2013-06-08 14:34:00,90.2,74.9,29.93,NNE,22,1.2,1.2,61,0.00,BKN,,0.00,1049.0,WeatherDisplay:10.37,2013-06-08 18:34:00,
2013-06-08 14:39:00,92.5,72.3,29.93,NNE,22,8.2,8.2,52,0.00,BKN,,0.00,1044.0,WeatherDisplay:10.37,2013-06-08 18:39:00,
2013-06-08 14:44:00,92.9,71.5,29.93,NNE,22,2.3,2.3,50,0.00,BKN,,0.00,1097.0,WeatherDisplay:10.37,2013-06-08 18:44:00,
2013-06-08 14:49:00,92.9,73.2,29.93,NNE,22,4.6,4.6,53,0.00,BKN,,0.00,385.0,WeatherDisplay:10.37,2013-06-08 18:49:00,
2013-06-08 14:54:00,93.1,75.6,29.93,NNE,22,1.2,0.0,57,0.00,BKN,,0.00,1069.0,WeatherDisplay:10.37,2013-06-08 18:54:00,
2013-06-08 14:59:00,94.2,72.7,29.93,NNE,22,1.2,1.7,50,0.00,BKN,,0.00,694.0,WeatherDisplay:10.37,2013-06-08 18:59:00,
2013-06-08 15:04:00,95.3,74.9,29.93,NNE,22,5.8,5.8,52,0.00,BKN,,0.00,1078.0,WeatherDisplay:10.37,2013-06-08 19:04:00,
2013-06-08 15:09:00,94.6,73.1,29.93,NNE,22,9.2,10.1,50,0.00,BKN,,0.00,747.0,WeatherDisplay:10.37,2013-06-08 19:09:00,
2013-06-08 15:14:00,94.4,74.6,29.93,NNE,22,4.6,4.6,53,0.00,BKN,,0.00,1065.0,WeatherDisplay:10.37,2013-06-08 19:14:00,
2013-06-08 15:19:00,95.6,74.0,29.93,NNE,22,4.6,4.6,50,0.00,BKN,,0.00,1185.0,WeatherDisplay:10.37,2013-06-08 19:19:00,
2013-06-08 15:24:00,96.6,75.5,29.93,NNE,23,2.7,4.4,51,0.00,BKN,,0.00,1192.0,WeatherDisplay:10.37,2013-06-08 19:24:00,
2013-06-08 15:29:00,95.3,72.5,29.93,NNE,23,9.2,9.2,48,0.00,BKN,,0.00,715.0,WeatherDisplay:10.37,2013-06-08 19:29:00,
2013-06-08 15:34:00,94.6,73.7,29.93,NNE,23,8.2,8.2,51,0.00,BKN,,0.00,715.0,WeatherDisplay:10.37,2013-06-08 19:34:00,
2013-06-08 15:39:00,95.4,74.4,29.93,NNE,23,8.1,8.1,51,0.00,BKN,,0.00,1074.0,WeatherDisplay:10.37,2013-06-08 19:39:00,
2013-06-08 15:44:00,95.2,74.2,29.93,NNE,19,2.7,2.7,51,0.00,BKN,,0.00,911.0,WeatherDisplay:10.37,2013-06-08 19:44:00,
2013-06-08 15:49:00,95.6,74.6,29.93,NNE,18,5.8,5.8,51,0.00,BKN,,0.00,868.0,WeatherDisplay:10.37,2013-06-08 19:49:00,
2013-06-08 15:54:00,95.6,74.0,29.93,NNE,19,5.8,5.8,50,0.00,BKN,,0.00,812.0,WeatherDisplay:10.37,2013-06-08 19:54:00,
2013-06-08 15:59:00,93.6,76.6,29.92,NNE,19,12.7,12.7,58,0.00,BKN,,0.00,497.0,WeatherDisplay:10.37,2013-06-08 19:59:00,
2013-06-08 16:04:00,94.4,78.9,29.92,NNE,17,5.8,5.8,61,0.00,BKN,,0.00,1051.0,WeatherDisplay:10.37,2013-06-08 20:04:00,
2013-06-08 16:09:00,92.3,75.9,29.92,NNE,18,8.1,8.1,59,0.00,BKN,,0.00,239.0,WeatherDisplay:10.37,2013-06-08 20:09:00,
2013-06-08 16:14:00,91.2,77.8,29.92,NNE,16,6.9,6.9,65,0.00,BKN,,0.00,169.0,WeatherDisplay:10.37,2013-06-08 20:14:00,
2013-06-08 16:19:00,90.0,77.6,29.92,NNE,17,11.5,11.5,67,0.00,BKN,,0.00,93.0,WeatherDisplay:10.37,2013-06-08 20:19:00,
2013-06-08 16:24:00,88.8,76.9,29.92,NNE,18,8.1,8.1,68,0.00,BKN,,0.00,77.0,WeatherDisplay:10.37,2013-06-08 20:24:00,
2013-06-08 16:30:00,88.1,77.1,29.93,NNE,17,4.6,4.6,70,0.00,BKN,,0.00,74.0,WeatherDisplay:10.37,2013-06-08 20:30:00,
2013-06-08 16:35:00,87.5,76.9,29.93,NNE,16,8.1,8.1,71,0.00,BKN,,0.00,69.0,WeatherDisplay:10.37,2013-06-08 20:35:00,
2013-06-08 16:40:00,86.9,77.2,29.93,NNE,14,6.9,6.9,73,0.00,BKN,,0.00,74.0,WeatherDisplay:10.37,2013-06-08 20:40:00,
2013-06-08 16:45:00,86.3,76.6,29.93,NNE,15,5.8,6.6,73,0.00,BKN,,0.00,72.0,WeatherDisplay:10.37,2013-06-08 20:45:00,
2013-06-08 16:50:00,86.1,76.8,29.93,NNE,16,3.0,10.0,74,0.00,BKN,,0.00,81.0,WeatherDisplay:10.37,2013-06-08 20:50:00,
2013-06-08 16:55:00,86.1,76.9,29.93,NNE,17,6.0,12.0,74,0.00,BKN,,0.00,86.0,WeatherDisplay:10.37,2013-06-08 20:55:00,
2013-06-08 17:00:00,86.1,76.8,29.94,NNE,17,8.2,8.2,74,0.00,BKN,,0.00,90.0,WeatherDisplay:10.37,2013-06-08 21:00:00,
2013-06-08 17:05:00,85.7,76.0,29.94,NNE,15,11.5,11.5,73,0.00,BKN,,0.00,95.0,WeatherDisplay:10.37,2013-06-08 21:05:00,
2013-06-08 17:10:00,85.7,76.0,29.94,NNE,17,8.1,8.1,73,0.00,BKN,,0.00,127.0,WeatherDisplay:10.37,2013-06-08 21:10:00,
2013-06-08 17:15:00,85.7,76.5,29.95,NNE,19,6.9,6.9,74,0.00,BKN,,0.00,142.0,WeatherDisplay:10.37,2013-06-08 21:15:00,
2013-06-08 17:20:00,85.7,76.9,29.95,NNE,17,6.0,8.0,75,0.00,BKN,,0.00,160.0,WeatherDisplay:10.37,2013-06-08 21:20:00,
2013-06-08 17:25:00,85.9,77.1,29.95,NNE,16,1.0,7.0,75,0.00,BKN,,0.00,174.0,WeatherDisplay:10.37,2013-06-08 21:25:00,
2013-06-08 17:30:00,86.0,77.1,29.95,NNE,18,4.6,4.6,75,0.00,BKN,,0.00,179.0,WeatherDisplay:10.37,2013-06-08 21:30:00,
2013-06-08 17:35:00,85.6,77.2,29.95,NNE,17,6.0,10.0,76,0.00,BKN,,0.00,179.0,WeatherDisplay:10.37,2013-06-08 21:35:00,
2013-06-08 17:40:00,85.4,76.2,29.95,NNE,19,9.2,9.2,74,0.00,BKN,,0.00,158.0,WeatherDisplay:10.37,2013-06-08 21:40:00,
2013-06-08 17:45:00,85.2,76.3,29.95,NNE,17,7.0,10.0,75,0.00,BKN,,0.00,167.0,WeatherDisplay:10.37,2013-06-08 21:45:00,
2013-06-08 17:50:00,85.2,75.9,29.95,NNE,17,10.0,13.0,74,0.00,BKN,,0.00,165.0,WeatherDisplay:10.37,2013-06-08 21:50:00,
2013-06-08 17:55:00,85.0,75.8,29.95,NNE,17,12.7,12.7,74,0.00,BKN,,0.00,165.0,WeatherDisplay:10.37,2013-06-08 21:55:00,
2013-06-08 18:00:00,85.0,75.4,29.95,NNE,18,8.1,8.1,73,0.00,BKN,,0.00,148.0,WeatherDisplay:10.37,2013-06-08 22:00:00,
2013-06-08 18:05:00,84.9,75.7,29.95,NNE,18,3.0,8.0,74,0.00,BKN,,0.00,135.0,WeatherDisplay:10.37,2013-06-08 22:05:00,
2013-06-08 18:10:00,84.8,75.6,29.95,NNE,17,4.6,4.6,74,0.00,BKN,,0.00,134.0,WeatherDisplay:10.37,2013-06-08 22:10:00,
2013-06-08 18:15:00,84.6,75.4,29.95,NNE,17,1.0,12.0,74,0.00,BKN,,0.00,139.0,WeatherDisplay:10.37,2013-06-08 22:15:00,
2013-06-08 18:20:00,84.7,75.9,29.95,NNE,17,6.0,12.0,75,0.00,BKN,,0.00,137.0,WeatherDisplay:10.37,2013-06-08 22:20:00,
2013-06-08 18:25:00,84.6,75.4,29.95,NNE,18,6.0,8.0,74,0.00,BKN,,0.00,118.0,WeatherDisplay:10.37,2013-06-08 22:25:00,
2013-06-08 18:30:00,84.4,75.2,29.96,NNE,17,11.5,11.5,74,0.00,BKN,,0.00,105.0,WeatherDisplay:10.37,2013-06-08 22:30:00,
2013-06-08 18:35:00,84.0,74.8,29.96,NNE,17,11.5,11.5,74,0.00,BKN,,0.00,93.0,WeatherDisplay:10.37,2013-06-08 22:35:00,
2013-06-08 18:40:00,83.9,74.7,29.96,NNE,18,15.1,15.1,74,0.00,BKN,,0.00,86.0,WeatherDisplay:10.37,2013-06-08 22:40:00,
2013-06-08 18:45:00,83.7,74.5,29.97,NNE,17,3.0,15.0,74,0.00,BKN,,0.00,76.0,WeatherDisplay:10.37,2013-06-08 22:45:00,
2013-06-08 18:50:00,83.5,74.7,29.97,NNE,18,8.1,8.1,75,0.00,BKN,,0.00,67.0,WeatherDisplay:10.37,2013-06-08 22:50:00,
2013-06-08 18:55:00,83.3,74.9,29.97,NNE,19,2.0,8.0,76,0.00,BKN,,0.00,58.0,WeatherDisplay:10.37,2013-06-08 22:55:00,
2013-06-08 19:00:00,82.9,74.2,29.97,NNE,19,11.5,11.5,75,0.00,BKN,,0.00,49.0,WeatherDisplay:10.37,2013-06-08 23:00:00,
2013-06-08 19:05:00,82.6,73.9,29.97,NNE,21,11.5,11.5,75,0.00,OVC,,0.00,40.0,WeatherDisplay:10.37,2013-06-08 23:05:00,
2013-06-08 19:10:00,82.4,73.7,29.97,NNE,18,11.5,11.5,75,0.00,OVC,,0.00,28.0,WeatherDisplay:10.37,2013-06-08 23:10:00,
2013-06-08 19:15:00,82.2,73.9,29.98,NNE,19,2.0,12.0,76,0.00,OVC,,0.00,26.0,WeatherDisplay:10.37,2013-06-08 23:15:00,
2013-06-08 19:20:00,82.1,73.8,29.98,NNE,19,9.2,9.2,76,0.00,OVC,,0.00,21.0,WeatherDisplay:10.37,2013-06-08 23:20:00,
2013-06-08 19:25:00,81.9,73.6,29.98,NNE,21,5.0,10.0,76,0.00,OVC,,0.00,14.0,WeatherDisplay:10.37,2013-06-08 23:25:00,
2013-06-08 19:30:00,81.7,73.4,29.98,NNE,22,9.2,9.2,76,0.00,OVC,,0.00,11.0,WeatherDisplay:10.37,2013-06-08 23:30:00,
2013-06-08 19:35:00,81.6,73.3,29.98,NNE,20,10.0,14.0,76,0.00,OVC,,0.00,7.0,WeatherDisplay:10.37,2013-06-08 23:35:00,
2013-06-08 19:40:00,81.5,73.6,29.98,NNE,21,8.0,12.0,77,0.00,OVC,,0.00,5.0,WeatherDisplay:10.37,2013-06-08 23:40:00,
2013-06-08 19:45:00,81.3,73.4,29.99,NNE,21,6.0,10.0,77,0.00,OVC,,0.00,5.0,WeatherDisplay:10.37,2013-06-08 23:45:00,
2013-06-08 19:50:00,81.2,73.3,29.99,NNE,21,7.0,12.0,77,0.00,OVC,,0.00,0.0,WeatherDisplay:10.37,2013-06-08 23:50:00,
2013-06-08 19:55:00,81.1,73.6,29.99,NNE,19,8.1,10.5,78,0.00,OVC,,0.00,0.0,WeatherDisplay:10.37,2013-06-08 23:55:00,
2013-06-08 20:00:00,81.0,73.5,29.98,NNE,21,13.8,13.8,78,0.00,OVC,,0.00,0.0,WeatherDisplay:10.37,2013-06-09 00:00:00,
2013-06-08 20:05:00,80.9,73.4,29.98,NNE,20,7.0,12.0,78,0.00,OVC,,0.00,0.0,WeatherDisplay:10.37,2013-06-09 00:05:00,
2013-06-08 20:10:00,80.9,73.4,29.98,NNE,22,6.9,8.1,78,0.00,OVC,,0.00,0.0,WeatherDisplay:10.37,2013-06-09 00:10:00,
2013-06-08 20:15:00,80.9,73.4,29.99,NNE,22,12.7,12.7,78,0.00,OVC,,0.00,0.0,WeatherDisplay:10.37,2013-06-09 00:15:00,
2013-06-08 20:20:00,80.7,73.6,29.99,NNE,21,13.0,13.0,79,0.00,OVC,,0.00,0.0,WeatherDisplay:10.37,2013-06-09 00:20:00,
2013-06-08 20:25:00,80.6,73.9,29.99,NNE,22,15.0,15.0,80,0.00,OVC,,0.00,0.0,WeatherDisplay:10.37,2013-06-09 00:25:00,
2013-06-08 20:30:00,80.4,74.0,29.99,NNE,21,11.5,11.5,81,0.00,OVC,,0.00,0.0,WeatherDisplay:10.37,2013-06-09 00:30:00,
2013-06-08 20:35:00,80.3,73.9,29.99,NNE,21,9.0,13.0,81,0.00,OVC,,0.00,0.0,WeatherDisplay:10.37,2013-06-09 00:35:00,
2013-06-08 20:40:00,80.1,74.1,29.99,NNE,22,11.5,11.5,82,0.00,OVC,,0.00,0.0,WeatherDisplay:10.37,2013-06-09 00:40:00,
2013-06-08 20:45:00,79.8,74.5,29.99,NNE,22,9.2,9.2,84,0.00,OVC,,0.01,0.0,WeatherDisplay:10.37,2013-06-09 00:45:00,
2013-06-08 20:50:00,79.3,74.4,29.99,NNE,22,12.7,12.7,85,0.01,RA,,0.01,0.0,WeatherDisplay:10.37,2013-06-09 00:50:00,
2013-06-08 20:55:00,78.9,74.7,29.99,NNE,22,6.0,8.0,87,0.00,OVC,,0.01,0.0,WeatherDisplay:10.37,2013-06-09 00:55:00,
2013-06-08 21:00:00,78.6,74.7,29.99,NNE,22,11.5,11.5,88,0.01,OVC,,0.01,0.0,WeatherDisplay:10.37,2013-06-09 01:00:00,
2013-06-08 21:05:00,78.4,74.6,29.99,NNE,22,7.0,8.0,88,0.00,OVC,,0.01,0.0,WeatherDisplay:10.37,2013-06-09 01:05:00,
2013-06-08 21:10:00,78.2,74.7,29.99,NNE,22,7.0,14.0,89,0.00,OVC,,0.01,0.0,WeatherDisplay:10.37,2013-06-09 01:10:00,
2013-06-08 21:15:00,78.0,74.5,29.99,NNE,21,8.2,8.2,89,0.01,OVC,,0.01,0.0,WeatherDisplay:10.37,2013-06-09 01:15:00,
2013-06-08 21:20:00,77.8,74.6,29.99,NNE,21,7.0,8.0,90,0.00,OVC,,0.01,0.0,WeatherDisplay:10.37,2013-06-09 01:20:00,
2013-06-08 21:25:00,77.6,74.4,29.99,NNE,22,8.1,8.8,90,0.01,OVC,,0.01,0.0,WeatherDisplay:10.37,2013-06-09 01:25:00,
2013-06-08 21:30:00,77.4,74.2,29.99,NNE,22,6.9,6.9,90,0.01,OVC,,0.01,0.0,WeatherDisplay:10.37,2013-06-09 01:30:00,
2013-06-08 21:35:00,77.4,74.3,29.99,NNE,22,6.0,8.0,90,0.00,OVC,,0.01,0.0,WeatherDisplay:10.37,2013-06-09 01:35:00,
2013-06-08 21:40:00,77.4,74.6,29.99,NNE,22,6.9,6.9,91,0.01,OVC,,0.01,0.0,WeatherDisplay:10.37,2013-06-09 01:40:00,
2013-06-08 21:45:00,77.2,74.0,30.00,NNE,22,8.0,13.0,90,0.00,OVC,,0.01,0.0,WeatherDisplay:10.37,2013-06-09 01:45:00,
2013-06-08 21:50:00,76.9,73.7,30.00,NNE,21,5.8,5.8,90,0.00,OVC,,0.01,0.0,WeatherDisplay:10.37,2013-06-09 01:50:00,
2013-06-08 21:55:00,76.7,73.6,30.00,NNE,21,9.0,12.0,90,0.00,OVC,,0.01,0.0,WeatherDisplay:10.37,2013-06-09 01:55:00,
2013-06-08 22:00:00,76.5,73.7,30.00,NNE,20,8.1,8.1,91,0.00,OVC,,0.01,0.0,WeatherDisplay:10.37,2013-06-09 02:00:00,
2013-06-08 22:05:00,76.3,73.5,30.00,NNE,22,11.0,11.0,91,0.00,BKN,,0.01,0.0,WeatherDisplay:10.37,2013-06-09 02:05:00,
2013-06-08 22:10:00,76.0,73.2,30.00,NNE,22,6.0,12.0,91,0.00,BKN,,0.01,0.0,WeatherDisplay:10.37,2013-06-09 02:10:00,
2013-06-08 22:15:00,75.9,73.1,30.00,NNE,22,7.0,7.0,91,0.00,BKN,,0.01,0.0,WeatherDisplay:10.37,2013-06-09 02:15:00,
2013-06-08 22:20:00,75.8,73.0,30.01,NNE,22,5.8,5.8,91,0.00,BKN,,0.01,0.0,WeatherDisplay:10.37,2013-06-09 02:20:00,
2013-06-08 22:25:00,75.7,72.9,30.01,NNE,22,5.8,5.8,91,0.00,BKN,,0.01,0.0,WeatherDisplay:10.37,2013-06-09 02:25:00,
2013-06-08 22:30:00,75.6,72.8,30.01,NNE,22,7.0,8.0,91,0.00,BKN,,0.01,0.0,WeatherDisplay:10.37,2013-06-09 02:30:00,
2013-06-08 22:35:00,75.4,72.3,30.01,NNE,22,4.6,4.6,90,0.00,BKN,,0.01,0.0,WeatherDisplay:10.37,2013-06-09 02:35:00,
2013-06-08 22:40:00,75.4,72.6,30.01,NNE,22,0.0,0.0,91,0.00,BKN,,0.01,0.0,WeatherDisplay:10.37,2013-06-09 02:40:00,
2013-06-08 22:45:00,75.3,72.2,30.01,NNE,22,0.0,1.0,90,0.00,BKN,,0.01,0.0,WeatherDisplay:10.37,2013-06-09 02:45:00,
2013-06-08 22:50:00,75.3,72.5,30.01,NNE,22,0.0,0.0,91,0.00,BKN,,0.01,0.0,WeatherDisplay:10.37,2013-06-09 02:50:00,
2013-06-08 22:55:00,75.2,72.3,30.01,NNE,22,0.0,0.0,91,0.00,BKN,,0.01,0.0,WeatherDisplay:10.37,2013-06-09 02:55:00,
2013-06-08 23:00:00,75.0,72.2,30.01,NNE,22,0.0,0.0,91,0.00,BKN,,0.01,0.0,WeatherDisplay:10.37,2013-06-09 03:00:00,
2013-06-08 23:05:00,75.1,72.3,30.01,NNE,22,0.0,0.0,91,0.00,SCT,,0.01,0.0,WeatherDisplay:10.37,2013-06-09 03:05:00,
2013-06-08 23:10:00,75.0,72.5,30.01,NNE,22,0.0,0.0,92,0.00,SCT,,0.01,0.0,WeatherDisplay:10.37,2013-06-09 03:10:00,
2013-06-08 23:15:00,75.1,72.6,30.01,NNE,22,0.0,0.0,92,0.00,SCT,,0.01,0.0,WeatherDisplay:10.37,2013-06-09 03:15:00,
2013-06-08 23:20:00,75.0,72.5,30.01,NNE,22,0.0,0.0,92,0.00,SCT,,0.01,0.0,WeatherDisplay:10.37,2013-06-09 03:20:00,
2013-06-08 23:25:00,75.0,72.6,30.01,NNE,22,0.0,0.0,92,0.00,SCT,,0.01,0.0,WeatherDisplay:10.37,2013-06-09 03:25:00,
2013-06-08 23:30:00,74.9,72.4,30.01,NNE,22,0.0,0.0,92,0.00,SCT,,0.01,0.0,WeatherDisplay:10.37,2013-06-09 03:30:00,
2013-06-08 23:35:00,74.9,72.4,30.01,NNE,22,0.0,0.0,92,0.00,SCT,,0.01,0.0,WeatherDisplay:10.37,2013-06-09 03:35:00,
2013-06-08 23:40:00,75.0,72.5,30.01,NNE,22,0.0,0.0,92,0.00,SCT,,0.01,0.0,WeatherDisplay:10.37,2013-06-09 03:40:00,
2013-06-08 23:45:00,74.9,72.4,30.01,NNE,22,0.0,0.0,92,0.00,SCT,,0.01,0.0,WeatherDisplay:10.37,2013-06-09 03:45:00,
2013-06-08 23:50:00,74.9,72.4,30.01,NNE,22,0.0,1.0,92,0.00,SCT,,0.01,0.0,WeatherDisplay:10.37,2013-06-09 03:50:00,
2013-06-08 23:55:00,74.8,72.3,30.01,NNE,22,0.0,0.0,92,0.00,SCT,,0.01,0.0,WeatherDisplay:10.37,2013-06-09 03:55:00,